Relevés horaires St-Hubert (Belgique)


Relevés horaires à St-Hubert - Vendredi 12 Août 2022
Heure UTC1 Température [°C] Vent [km/h] Hum. [%] Pres.4 [hPa] Visi. [Km] Nébu. [octa] Préc.5 [mm] Cond.
2m. Res. Ros. Dir.2 Vit. Moy. Raf.3
23:00 17.9 17.9 4.8 E 7.4 7.4 9.3 42 1017(0.0/3h) 50 0/8 -- --
22:00 18.5 18.5 4.4 E 7.4 7.4 11.1 39 1016.8(0.3/3h) 45 0/8 -- --
21:00 20.0 20.0 4.6 E 7.4 7.4 13.0 36 1016.5(0.7/3h) 45 0/8 -- --
20:00 20.7 20.7 4.3 E 7.4 7.4 11.1 34 1016.3(0.7/3h) 45 0/8 -- --
19:00 21.8 21.8 3.8 E 5.6 7.4 11.1 31 1015.7(-0.2/3h) 45 0/8 -- --
18:00 25.4 25.4 3.9 E 5.6 9.3 16.7 25 1014.7(-0.4/3h) 35 0/8 0/12h
--
17:00 26.6 26.6 4.1 ESE 7.4 7.4 13.0 24 1014.3(-1.0/3h) 40 0/8 -- --
16:00 27.2 27.2 3.4 NE 7.4 9.3 14.8 22 1014.4(-1.1/3h) 35 0/8 -- --
15:00 27.2 27.2 3.3 ENE 5.6 9.3 16.7 21 1014.7(-1.1/3h) 35 0/8 -- --
14:00 26.9 26.9 4.9 E 5.6 7.4 16.7 24 1015.2(-1.1/3h) 35 0/8 -- --
13:00 26.4 26.4 6.2 E 5.6 9.3 14.8 28 1015.7(-1.3/3h) 30 0/8 -- --
12:00 26.0 26.0 6.3 ENE 9.3 9.3 14.8 28 1016.1(-1.1/3h) 35 0/8 0/6h
--
11:00 25.3 25.3 7.6 ESE 5.6 7.4 14.8 32 1016.7(-0.5/3h) 30 0/8 -- --
10:00 24.5 24.5 7.3 E 7.4 7.4 13.0 33 1017.4(0.0/3h) 30 0/8 -- --
09:00 23.1 23.1 8.2 E 7.4 7.4 13.0 38 1017.9(-0.1/3h) 40 0/8 -- --
08:00 21.9 21.9 7.6 E 7.4 7.4 11.1 40 1018(0.2/3h) 35 0/8 -- --
07:00 19.4 19.4 6.8 E 7.4 7.4 11.1 44 1018.5(0.0/3h) 30 0/8 -- --
06:00 17.2 17.2 5.9 ENE 7.4 7.4 9.3 47 1019.1(0.0/3h) 35 0/8 0/12h
--
05:00 15.4 15.4 6.0 ENE 5.6 7.4 9.3 53 1019.3(-0.5/3h) 45 0/8 -- --
04:00 14.7 14.6 6.8 ENE 7.4 7.4 9.3 59 1019.5(-0.4/3h) 45 0/8 -- --
03:00 16.8 16.8 5.8 ENE 7.4 7.4 9.3 48 1019.2(-0.6/3h) 45 0/8 -- --
02:00 16.3 16.3 5.1 ENE 7.4 7.4 9.3 47 1019.6(-0.4/3h) 45 0/8 -- --
01:00 18.8 18.8 5.8 ENE 5.6 7.4 9.3 42 1019.1(-0.6/3h) 45 0/8 -- --
00:00 17.6 17.6 6.0 E 7.4 7.4 11.1 46 1019.6(-0.3/3h) 40 0/8 0/6h
0/24h
--

1 Coordinated Universal Time. Actuellement il est 22:00 locale et 21:00 UTC.

2 Le vent souffle depuis la direction indiquée vers la direction oposée.

3 Les rafales max. sont disponible 40 min après l'heure du relevé.

4 Pour les stations d'altitude (plus de 600m) le géopotentiel du niveau le plus proche de la pression obligatoire est indiqué.

5 Les stations disposant d'un diffuseur peuvent indiquer "trace". Cela signifie que des précipitations ont touchés le sol mais que la quantité est inférieure à 0.1 mm.

Récapitulatif de la journée
Température [°C] Vent [km/h] Ensoleillement4 [h] Precipitations totale5 [mm] Pression [Hpa]
Min1 Max.2 Moy.3 Max. Min Max.
13.3 27.6 7.8 16.7 0 h 0 min 0 1014.3 1019.6

1 Température minimale relevée entre 18:00 UTC la veille et 18:00 UTC le jour donné.

2 Température maximale relevée entre 06:00 UTC le jour donné et 06:00 UTC le lendemain.

3 Vent moyen de la journée basé sur les relevés horaires.

4 Ensoleillement en heures relevé entre 06:00 UTC la veille et 06:00 UTC le jour donné.

5 Précipitations totales tombées entre 06:00 UTC la jour donné et 06:00 UTC le lendemain.

Graphiques horaires